createdAt,value
2019-01-22T00:00:06.058Z,97.15
2019-01-22T00:01:06.032Z,96.96
2019-01-22T00:02:06.009Z,96.96
2019-01-22T00:03:05.972Z,97.25
2019-01-22T00:04:05.958Z,97.06
2019-01-22T00:05:05.915Z,97.06
2019-01-22T00:06:05.885Z,96.96
2019-01-22T00:07:05.858Z,97.34
2019-01-22T00:08:05.852Z,97.34
2019-01-22T00:09:05.806Z,96.96
2019-01-22T00:10:05.777Z,97.53
2019-01-22T00:11:05.743Z,97.25
2019-01-22T00:12:05.727Z,97.06
2019-01-22T00:13:05.682Z,97.53
2019-01-22T00:14:05.664Z,97.15
2019-01-22T00:15:05.624Z,97.15
2019-01-22T00:16:05.603Z,97.44
2019-01-22T00:17:05.567Z,97.34
2019-01-22T00:18:05.537Z,97.53
2019-01-22T00:19:05.508Z,97.72
2019-01-22T00:20:05.481Z,97.63
2019-01-22T00:21:05.460Z,97.53
2019-01-22T00:22:05.429Z,97.81
2019-01-22T00:23:05.396Z,97.81
2019-01-22T00:24:05.365Z,97.72
2019-01-22T00:25:05.343Z,97.72
2019-01-22T00:26:05.304Z,97.34
2019-01-22T00:27:05.292Z,97.34
2019-01-22T00:28:05.255Z,97.34
2019-01-22T00:29:05.218Z,97.34
2019-01-22T00:30:05.190Z,97.44
2019-01-22T00:31:05.159Z,97.34
2019-01-22T00:32:05.132Z,97.34
2019-01-22T00:33:05.102Z,97.34
2019-01-22T00:34:05.079Z,97.44
2019-01-22T00:35:05.053Z,97.25
2019-01-22T00:36:05.018Z,97.15
2019-01-22T00:37:04.990Z,97.06
2019-01-22T00:38:04.962Z,97.15
2019-01-22T00:39:04.939Z,97.44
2019-01-22T00:40:04.917Z,97.44
2019-01-22T00:41:04.874Z,97.34
2019-01-22T00:42:04.853Z,97.25
2019-01-22T00:43:04.823Z,97.44
2019-01-22T00:44:04.787Z,97.25
2019-01-22T00:45:04.772Z,97.25
2019-01-22T00:46:04.731Z,97.06
2019-01-22T00:47:04.721Z,96.96
2019-01-22T00:48:04.675Z,97.34
2019-01-22T00:49:04.641Z,97.25
2019-01-22T00:50:04.612Z,97.34
2019-01-22T00:51:04.581Z,97.34
2019-01-22T00:52:04.552Z,97.81
2019-01-22T00:53:09.931Z,98.00
2019-01-22T00:54:04.493Z,97.53
2019-01-22T00:55:04.479Z,97.81
2019-01-22T00:56:04.435Z,98.28
2019-01-22T00:57:04.405Z,97.86
2019-01-22T00:58:04.378Z,98.61
2019-01-22T00:59:04.357Z,98.43
2019-01-22T01:00:04.319Z,98.80
2019-01-22T01:01:04.289Z,98.71
2019-01-22T01:02:04.259Z,98.52
2019-01-22T01:03:04.231Z,98.43
2019-01-22T01:04:04.210Z,98.99
2019-01-22T01:05:04.170Z,98.99
2019-01-22T01:06:04.142Z,98.52
2019-01-22T01:07:04.121Z,98.52
2019-01-22T01:08:04.083Z,98.33
2019-01-22T01:09:04.057Z,98.52
2019-01-22T01:10:04.026Z,98.14
2019-01-22T01:11:03.997Z,98.14
2019-01-22T01:12:03.966Z,98.24
2019-01-22T01:13:03.935Z,98.43
2019-01-22T01:14:03.907Z,98.80
2019-01-22T01:15:03.884Z,98.71
2019-01-22T01:16:03.850Z,98.80
2019-01-22T01:17:03.819Z,98.14
2019-01-22T01:18:03.790Z,98.24
2019-01-22T01:19:03.767Z,97.86
2019-01-22T01:20:03.731Z,98.14
2019-01-22T01:21:03.712Z,98.24
2019-01-22T01:22:03.680Z,98.52
2019-01-22T01:23:03.644Z,98.52
2019-01-22T01:24:03.618Z,98.43
2019-01-22T01:25:03.583Z,98.80
2019-01-22T01:26:03.554Z,98.90
2019-01-22T01:27:03.524Z,98.61
2019-01-22T01:28:03.495Z,98.43
2019-01-22T01:29:03.466Z,98.90
2019-01-22T01:30:03.453Z,98.80
2019-01-22T01:31:03.408Z,98.71
2019-01-22T01:32:03.377Z,99.27
2019-01-22T01:33:03.345Z,99.27
2019-01-22T01:34:03.315Z,98.71
2019-01-22T01:35:03.287Z,98.80
2019-01-22T01:36:03.256Z,98.90
2019-01-22T01:37:03.228Z,98.24
2019-01-22T01:38:03.197Z,98.71
2019-01-22T01:39:03.174Z,98.52
2019-01-22T01:40:03.138Z,98.99
2019-01-22T01:41:03.108Z,98.61
2019-01-22T01:42:03.078Z,98.52
2019-01-22T01:43:03.048Z,98.61
2019-01-22T01:44:03.036Z,98.61
2019-01-22T01:45:02.995Z,98.90
2019-01-22T01:46:02.958Z,98.90
2019-01-22T01:47:02.932Z,99.18
2019-01-22T01:48:02.910Z,99.65
2019-01-22T01:49:02.877Z,99.46
2019-01-22T01:50:02.841Z,99.65
2019-01-22T01:51:02.811Z,99.46
2019-01-22T01:52:02.781Z,99.65
2019-01-22T01:53:02.751Z,99.08
2019-01-22T01:54:02.721Z,99.56
2019-01-22T01:55:02.691Z,99.46
2019-01-22T01:56:02.662Z,99.37
2019-01-22T01:57:02.632Z,99.65
2019-01-22T01:58:02.609Z,99.65
2019-01-22T01:59:02.573Z,99.99
2019-01-22T02:00:02.546Z,99.46
2019-01-22T02:01:02.516Z,99.94
2019-01-22T02:02:02.486Z,99.46
2019-01-22T02:03:02.463Z,99.46
2019-01-22T02:04:02.424Z,99.27
2019-01-22T02:05:02.404Z,98.71
2019-01-22T02:06:02.367Z,99.08
2019-01-22T02:07:02.337Z,99.75
2019-01-22T02:08:02.305Z,99.75
2019-01-22T02:09:02.284Z,99.56
2019-01-22T02:10:02.247Z,99.65
2019-01-22T02:11:02.215Z,99.27
2019-01-22T02:12:02.188Z,99.99
2019-01-22T02:13:02.165Z,99.94
2019-01-22T02:14:02.126Z,99.65
2019-01-22T02:15:02.096Z,99.84
2019-01-22T02:16:02.067Z,99.99
2019-01-22T02:17:02.036Z,99.46
2019-01-22T02:18:02.005Z,99.37
2019-01-22T02:19:01.976Z,99.65
2019-01-22T02:20:01.952Z,99.84
2019-01-22T02:21:01.917Z,99.65
2019-01-22T02:22:01.886Z,99.56
2019-01-22T02:23:01.857Z,99.56
2019-01-22T02:24:01.832Z,99.65
2019-01-22T02:25:01.814Z,99.65
2019-01-22T02:26:01.766Z,99.18
2019-01-22T02:27:01.736Z,99.65
2019-01-22T02:28:01.715Z,99.99
2019-01-22T02:29:01.677Z,99.94
2019-01-22T02:30:01.664Z,99.84
2019-01-22T02:31:01.621Z,99.99
2019-01-22T02:32:01.588Z,99.99
2019-01-22T02:33:01.557Z,99.99
2019-01-22T02:34:01.527Z,99.99
2019-01-22T02:35:01.496Z,99.99
2019-01-22T02:36:01.467Z,99.99
2019-01-22T02:37:01.437Z,99.99
2019-01-22T02:38:01.407Z,99.99
2019-01-22T02:39:01.376Z,99.99
2019-01-22T02:40:01.348Z,99.99
2019-01-22T02:41:01.325Z,99.99
2019-01-22T02:42:01.287Z,99.99
2019-01-22T02:43:01.255Z,99.99
2019-01-22T02:44:01.234Z,99.99
2019-01-22T02:45:01.197Z,99.99
2019-01-22T02:46:01.168Z,99.99
2019-01-22T02:47:01.137Z,99.99
2019-01-22T02:48:01.107Z,99.99
2019-01-22T02:49:01.076Z,99.99
2019-01-22T02:50:01.063Z,99.99
2019-01-22T02:51:01.016Z,99.99
2019-01-22T02:52:00.986Z,99.99
2019-01-22T02:53:00.950Z,99.99
2019-01-22T02:54:00.919Z,99.99
2019-01-22T02:55:00.893Z,99.99
2019-01-22T02:56:00.860Z,99.99
2019-01-22T02:57:00.830Z,99.99
2019-01-22T02:58:00.798Z,99.99
2019-01-22T02:59:00.766Z,99.99
2019-01-22T03:00:00.742Z,99.99
2019-01-22T03:01:00.705Z,99.99
2019-01-22T03:02:00.677Z,99.99
2019-01-22T03:03:00.645Z,99.99
2019-01-22T03:04:00.625Z,99.99
2019-01-22T03:05:00.583Z,99.99
2019-01-22T03:06:00.554Z,99.99
2019-01-22T03:07:00.530Z,99.99
2019-01-22T03:08:00.495Z,99.99
2019-01-22T03:09:00.477Z,99.99
2019-01-22T03:10:00.431Z,99.99
2019-01-22T03:11:00.410Z,99.99
2019-01-22T03:12:00.372Z,99.99
2019-01-22T03:13:00.342Z,99.99
2019-01-22T03:14:00.310Z,99.99
2019-01-22T03:15:00.279Z,99.99
2019-01-22T03:16:00.254Z,99.99
2019-01-22T03:17:00.219Z,99.99
2019-01-22T03:18:00.198Z,99.99
2019-01-22T03:19:00.160Z,99.99
2019-01-22T03:20:00.304Z,99.99
2019-01-22T03:21:00.104Z,99.99
2019-01-22T03:22:00.068Z,99.99
2019-01-22T03:23:00.040Z,99.99
2019-01-22T03:24:00.008Z,99.99
2019-01-22T03:24:59.978Z,99.99
2019-01-22T03:25:59.948Z,99.99
2019-01-22T03:26:59.916Z,99.99
2019-01-22T03:27:59.889Z,99.99
2019-01-22T03:28:59.865Z,99.99
2019-01-22T03:29:59.823Z,99.99
2019-01-22T03:30:59.795Z,99.99
2019-01-22T03:31:59.779Z,99.99
2019-01-22T03:32:59.732Z,99.99
2019-01-22T03:33:59.802Z,99.99
2019-01-22T03:34:59.680Z,99.99
2019-01-22T03:35:59.647Z,99.99
2019-01-22T03:36:59.612Z,99.99
2019-01-22T03:37:59.580Z,99.99
2019-01-22T03:38:59.557Z,99.99
2019-01-22T03:39:59.517Z,99.99
2019-01-22T03:40:59.486Z,99.99
2019-01-22T03:41:59.457Z,99.99
2019-01-22T03:42:59.425Z,99.99
2019-01-22T03:43:59.396Z,99.99
2019-01-22T03:44:59.366Z,99.99
2019-01-22T03:45:59.332Z,99.99
2019-01-22T03:46:59.304Z,99.99
2019-01-22T03:47:59.271Z,99.99
2019-01-22T03:48:59.255Z,99.99
2019-01-22T03:49:59.211Z,99.99
2019-01-22T03:50:59.178Z,99.99
2019-01-22T03:51:59.150Z,99.99
2019-01-22T03:52:59.118Z,99.99
2019-01-22T03:53:59.091Z,99.99
2019-01-22T03:54:59.058Z,99.99
2019-01-22T03:55:59.036Z,99.99
2019-01-22T03:56:58.998Z,99.99
2019-01-22T03:57:58.966Z,99.99
2019-01-22T03:58:58.939Z,99.99
2019-01-22T03:59:58.907Z,99.99
2019-01-22T04:00:58.876Z,99.99
2019-01-22T04:01:58.844Z,99.99
2019-01-22T04:02:58.818Z,99.99
2019-01-22T04:03:58.785Z,99.99
2019-01-22T04:04:58.754Z,99.99
2019-01-22T04:05:58.727Z,99.99
2019-01-22T04:06:58.693Z,99.99
2019-01-22T04:07:58.735Z,99.99
2019-01-22T04:08:58.633Z,99.99
2019-01-22T04:09:58.600Z,99.99
2019-01-22T04:10:58.619Z,99.99
2019-01-22T04:11:58.547Z,99.99
2019-01-22T04:12:58.508Z,99.99
2019-01-22T04:13:58.479Z,99.99
2019-01-22T04:14:58.446Z,99.99
2019-01-22T04:15:58.416Z,99.99
2019-01-22T04:16:58.387Z,99.99
2019-01-22T04:17:58.359Z,99.99
2019-01-22T04:18:58.328Z,99.99
2019-01-22T04:19:58.303Z,99.99
2019-01-22T04:20:58.264Z,99.99
2019-01-22T04:21:58.233Z,99.99
2019-01-22T04:22:58.203Z,99.99
2019-01-22T04:24:01.854Z,99.99
2019-01-22T04:24:58.190Z,99.99
2019-01-22T04:25:58.115Z,99.99
2019-01-22T04:26:58.082Z,99.99
2019-01-22T04:27:58.051Z,99.99
2019-01-22T04:28:58.018Z,99.99
2019-01-22T04:29:57.989Z,99.99
2019-01-22T04:30:57.958Z,99.99
2019-01-22T04:31:57.937Z,99.99
2019-01-22T04:32:57.898Z,99.99
2019-01-22T04:33:57.881Z,99.99
2019-01-22T04:34:57.838Z,99.99
2019-01-22T04:35:57.808Z,99.99
2019-01-22T04:36:57.774Z,99.99
2019-01-22T04:37:57.753Z,99.99
2019-01-22T04:38:57.712Z,99.99
2019-01-22T04:39:57.684Z,99.99
2019-01-22T04:40:57.652Z,99.99
2019-01-22T04:41:57.622Z,99.99
2019-01-22T04:42:57.591Z,99.99
2019-01-22T04:43:57.562Z,99.99
2019-01-22T04:44:57.539Z,99.99
2019-01-22T04:45:57.499Z,99.99
2019-01-22T04:46:57.472Z,99.99
2019-01-22T04:47:57.442Z,99.99
2019-01-22T04:48:57.412Z,99.99
2019-01-22T04:49:57.384Z,99.99
2019-01-22T04:50:57.348Z,99.99
2019-01-22T04:51:57.315Z,99.99
2019-01-22T04:52:57.286Z,99.99
2019-01-22T04:53:57.252Z,99.99
2019-01-22T04:54:57.225Z,99.99
2019-01-22T04:55:57.193Z,99.99
2019-01-22T04:56:57.160Z,99.99
2019-01-22T04:57:57.130Z,99.99
2019-01-22T04:58:57.108Z,99.99
2019-01-22T04:59:57.068Z,99.99
2019-01-22T05:00:57.037Z,99.99
2019-01-22T05:01:57.006Z,99.99
2019-01-22T05:02:56.984Z,99.99
2019-01-22T05:03:56.944Z,99.99
2019-01-22T05:04:56.915Z,99.99
2019-01-22T05:05:56.881Z,99.99
2019-01-22T05:06:56.852Z,99.99
2019-01-22T05:07:56.822Z,99.99
2019-01-22T05:08:56.788Z,99.99
2019-01-22T05:09:56.759Z,99.99
2019-01-22T05:10:56.733Z,99.99
2019-01-22T05:11:56.698Z,99.99
2019-01-22T05:12:56.716Z,99.99
2019-01-22T05:13:56.636Z,99.99
2019-01-22T05:14:56.620Z,99.99
2019-01-22T05:15:56.575Z,99.99
2019-01-22T05:16:56.543Z,99.99
2019-01-22T05:17:56.511Z,99.99
2019-01-22T05:18:56.483Z,99.99
2019-01-22T05:19:56.497Z,99.99
2019-01-22T05:20:56.430Z,99.99
2019-01-22T05:21:56.390Z,99.99
2019-01-22T05:22:56.358Z,99.99
2019-01-22T05:23:56.331Z,99.99
2019-01-22T05:24:56.295Z,99.99
2019-01-22T05:25:56.265Z,99.99
2019-01-22T05:26:56.235Z,99.99
2019-01-22T05:27:56.203Z,99.99
2019-01-22T05:28:56.172Z,99.99
2019-01-22T05:29:56.149Z,99.99
2019-01-22T05:30:56.110Z,99.99
2019-01-22T05:31:56.079Z,99.99
2019-01-22T05:32:56.052Z,99.99
2019-01-22T05:33:56.019Z,99.99
2019-01-22T05:34:55.986Z,99.99
2019-01-22T05:35:55.955Z,99.99
2019-01-22T05:36:55.929Z,99.99
2019-01-22T05:37:55.894Z,99.99
2019-01-22T05:38:55.861Z,99.99
2019-01-22T05:39:55.829Z,99.99
2019-01-22T05:40:55.807Z,99.99
2019-01-22T05:41:55.773Z,99.99
2019-01-22T05:42:55.738Z,99.99
2019-01-22T05:43:55.706Z,99.99
2019-01-22T05:44:55.674Z,99.99
2019-01-22T05:45:55.644Z,99.99
2019-01-22T05:46:55.621Z,99.99
2019-01-22T05:47:55.583Z,99.99
2019-01-22T05:48:55.550Z,99.99
2019-01-22T05:49:55.523Z,99.99
2019-01-22T05:50:55.491Z,99.99
2019-01-22T05:51:55.458Z,99.99
2019-01-22T05:52:55.427Z,99.99
2019-01-22T05:53:55.394Z,99.99
2019-01-22T05:54:55.465Z,99.99
2019-01-22T05:55:55.335Z,99.99
2019-01-22T05:56:55.309Z,99.99
2019-01-22T05:57:55.272Z,99.99
2019-01-22T05:58:55.239Z,99.99
2019-01-22T05:59:55.210Z,99.99
2019-01-22T06:00:55.179Z,99.99
2019-01-22T06:01:55.147Z,99.99
2019-01-22T06:02:55.118Z,99.99
2019-01-22T06:03:55.086Z,99.99
2019-01-22T06:04:55.054Z,99.99
2019-01-22T06:05:55.022Z,99.99
2019-01-22T06:06:54.994Z,99.99
2019-01-22T06:07:54.969Z,99.99
2019-01-22T06:08:54.978Z,99.99
2019-01-22T06:09:54.908Z,99.99
2019-01-22T06:10:54.867Z,99.99
2019-01-22T06:11:54.837Z,99.99
2019-01-22T06:12:54.805Z,99.99
2019-01-22T06:13:54.776Z,99.99
2019-01-22T06:14:54.745Z,99.99
2019-01-22T06:15:54.760Z,99.99
2019-01-22T06:16:54.679Z,99.99
2019-01-22T06:17:54.650Z,99.99
2019-01-22T06:18:54.619Z,99.99
2019-01-22T06:19:54.601Z,99.99
2019-01-22T06:20:54.559Z,99.99
2019-01-22T06:21:54.558Z,99.99
2019-01-22T06:22:54.497Z,99.99
2019-01-22T06:23:54.467Z,99.99
2019-01-22T06:24:54.444Z,99.99
2019-01-22T06:25:54.403Z,99.99
2019-01-22T06:26:54.372Z,99.99
2019-01-22T06:27:54.341Z,99.99
2019-01-22T06:28:54.309Z,99.99
2019-01-22T06:29:54.278Z,99.99
2019-01-22T06:30:54.247Z,99.99
2019-01-22T06:31:54.223Z,99.99
2019-01-22T06:32:54.206Z,99.99
2019-01-22T06:33:54.155Z,99.99
2019-01-22T06:34:54.126Z,99.99
2019-01-22T06:35:54.101Z,99.99
2019-01-22T06:36:54.061Z,99.99
2019-01-22T06:37:54.030Z,99.99
2019-01-22T06:38:54.001Z,99.99
2019-01-22T06:39:53.975Z,99.99
2019-01-22T06:40:53.936Z,99.99
2019-01-22T06:41:53.913Z,99.99
2019-01-22T06:42:54.023Z,99.99
2019-01-22T06:43:53.842Z,99.99
2019-01-22T06:44:53.811Z,99.99
2019-01-22T06:45:53.796Z,99.99
2019-01-22T06:46:53.750Z,99.99
2019-01-22T06:47:53.718Z,99.99
2019-01-22T06:48:53.692Z,99.99
2019-01-22T06:49:53.656Z,99.99
2019-01-22T06:50:53.630Z,99.99
2019-01-22T06:51:53.645Z,99.74
2019-01-22T06:52:53.567Z,99.55
2019-01-22T06:53:53.532Z,99.65
2019-01-22T06:54:53.503Z,99.08
2019-01-22T06:55:53.471Z,99.08
2019-01-22T06:56:53.438Z,98.99
2019-01-22T06:57:53.409Z,99.37
2019-01-22T06:58:53.393Z,98.61
2019-01-22T06:59:53.348Z,98.90
2019-01-22T07:00:53.314Z,98.52
2019-01-22T07:01:53.283Z,98.14
2019-01-22T07:02:53.255Z,98.61
2019-01-22T07:03:53.228Z,98.23
2019-01-22T07:04:53.190Z,98.71
2019-01-22T07:05:53.158Z,98.42
2019-01-22T07:06:53.128Z,98.52
2019-01-22T07:07:53.103Z,98.61
2019-01-22T07:08:53.065Z,97.95
2019-01-22T07:09:53.035Z,98.04
2019-01-22T07:10:53.004Z,98.42
2019-01-22T07:11:52.972Z,98.42
2019-01-22T07:12:52.945Z,98.14
2019-01-22T07:13:52.910Z,98.52
2019-01-22T07:14:52.878Z,98.42
2019-01-22T07:15:52.851Z,98.14
2019-01-22T07:16:52.816Z,98.33
2019-01-22T07:17:52.785Z,98.04
2019-01-22T07:18:52.756Z,97.95
2019-01-22T07:19:52.739Z,97.85
2019-01-22T07:20:52.693Z,97.85
2019-01-22T07:21:52.663Z,97.57
2019-01-22T07:22:52.629Z,97.76
2019-01-22T07:23:52.600Z,97.85
2019-01-22T07:24:52.576Z,97.29
2019-01-22T07:25:52.543Z,97.48
2019-01-22T07:26:52.508Z,97.38
2019-01-22T07:27:52.481Z,97.85
2019-01-22T07:28:52.441Z,98.14
2019-01-22T07:29:52.411Z,97.76
2019-01-22T07:30:52.381Z,97.57
2019-01-22T07:31:52.349Z,97.57
2019-01-22T07:32:52.319Z,97.29
2019-01-22T07:33:52.341Z,97.48
2019-01-22T07:34:52.255Z,97.57
2019-01-22T07:35:52.238Z,97.57
2019-01-22T07:36:52.192Z,97.57
2019-01-22T07:37:52.171Z,97.38
2019-01-22T07:38:52.252Z,97.57
2019-01-22T07:39:52.106Z,97.38
2019-01-22T07:40:52.078Z,97.19
2019-01-22T07:41:52.052Z,97.10
2019-01-22T07:42:52.014Z,97.10
2019-01-22T07:43:51.989Z,97.10
2019-01-22T07:44:51.943Z,97.19
2019-01-22T07:45:51.913Z,96.91
2019-01-22T07:46:51.898Z,97.00
2019-01-22T07:47:51.851Z,97.00
2019-01-22T07:48:51.820Z,97.38
2019-01-22T07:49:51.796Z,97.29
2019-01-22T07:50:51.766Z,97.05
2019-01-22T07:51:51.730Z,97.10
2019-01-22T07:52:51.703Z,97.05
2019-01-22T07:53:51.666Z,97.34
2019-01-22T07:54:53.972Z,97.00
2019-01-22T07:55:51.604Z,96.34
2019-01-22T07:56:51.574Z,96.86
2019-01-22T07:57:51.543Z,96.91
2019-01-22T07:58:51.528Z,96.77
2019-01-22T07:59:51.482Z,97.15
2019-01-22T08:00:51.450Z,97.00
2019-01-22T08:01:51.426Z,97.05
2019-01-22T08:02:51.388Z,97.05
2019-01-22T08:03:51.366Z,97.34
2019-01-22T08:04:51.333Z,96.77
2019-01-22T08:05:51.294Z,96.58
2019-01-22T08:06:51.263Z,96.58
2019-01-22T08:07:51.234Z,96.58
2019-01-22T08:08:51.201Z,96.39
2019-01-22T08:09:51.172Z,96.77
2019-01-22T08:10:51.140Z,96.39
2019-01-22T08:11:51.112Z,96.86
2019-01-22T08:12:51.078Z,96.96
2019-01-22T08:13:51.048Z,96.77
2019-01-22T08:14:51.022Z,96.49
2019-01-22T08:15:50.987Z,96.30
2019-01-22T08:16:50.967Z,95.83
2019-01-22T08:17:50.926Z,96.01
2019-01-22T08:18:50.904Z,95.83
2019-01-22T08:19:50.865Z,95.73
2019-01-22T08:20:50.832Z,96.49
2019-01-22T08:21:50.802Z,96.49
2019-01-22T08:22:50.771Z,95.54
2019-01-22T08:23:50.740Z,95.54
2019-01-22T08:24:50.708Z,95.73
2019-01-22T08:25:50.679Z,95.83
2019-01-22T08:26:50.664Z,95.92
2019-01-22T08:27:50.618Z,95.83
2019-01-22T08:28:50.587Z,95.17
2019-01-22T08:29:50.555Z,95.17
2019-01-22T08:30:50.536Z,95.45
2019-01-22T08:31:50.507Z,95.36
2019-01-22T08:32:50.471Z,95.45
2019-01-22T08:33:50.446Z,95.73
2019-01-22T08:34:50.406Z,95.54
2019-01-22T08:35:50.383Z,95.36
2019-01-22T08:36:50.343Z,95.64
2019-01-22T08:37:50.314Z,95.17
2019-01-22T08:38:50.280Z,95.26
2019-01-22T08:39:50.261Z,94.89
2019-01-22T08:40:50.221Z,94.98
2019-01-22T08:41:50.189Z,94.13
2019-01-22T08:42:50.160Z,94.60
2019-01-22T08:43:50.180Z,94.41
2019-01-22T08:44:50.098Z,94.03
2019-01-22T08:45:50.075Z,94.13
2019-01-22T08:46:50.217Z,94.41
2019-01-22T08:47:50.005Z,94.22
2019-01-22T08:48:49.978Z,94.32
2019-01-22T08:49:49.944Z,94.51
2019-01-22T08:50:49.922Z,94.22
2019-01-22T08:51:49.887Z,94.32
2019-01-22T08:52:49.922Z,94.32
2019-01-22T08:53:49.831Z,94.13
2019-01-22T08:54:49.798Z,94.13
2019-01-22T08:55:49.772Z,94.32
2019-01-22T08:56:49.756Z,93.61
2019-01-22T08:57:49.702Z,93.75
2019-01-22T08:58:49.673Z,93.32
2019-01-22T08:59:49.641Z,93.04
2019-01-22T09:00:49.610Z,92.76
2019-01-22T09:01:49.589Z,92.66
2019-01-22T09:02:49.555Z,92.85
2019-01-22T09:03:49.521Z,92.29
2019-01-22T09:04:49.493Z,92.47
2019-01-22T09:05:49.462Z,92.00
2019-01-22T09:06:49.434Z,92.19
2019-01-22T09:07:49.402Z,92.57
2019-01-22T09:08:49.377Z,92.29
2019-01-22T09:09:49.347Z,91.91
2019-01-22T09:10:49.326Z,92.00
2019-01-22T09:11:49.280Z,92.00
2019-01-22T09:12:49.248Z,92.00
2019-01-22T09:13:49.220Z,92.29
2019-01-22T09:14:49.219Z,91.63
2019-01-22T09:15:49.169Z,92.19
2019-01-22T09:16:49.139Z,92.29
2019-01-22T09:17:49.100Z,92.10
2019-01-22T09:18:49.078Z,92.38
2019-01-22T09:19:49.041Z,92.00
2019-01-22T09:20:49.008Z,91.34
2019-01-22T09:21:48.981Z,91.44
2019-01-22T09:22:48.965Z,91.44
2019-01-22T09:23:48.922Z,91.63
2019-01-22T09:24:48.901Z,91.25
2019-01-22T09:25:48.860Z,90.87
2019-01-22T09:26:48.831Z,90.87
2019-01-22T09:27:48.801Z,90.68
2019-01-22T09:28:48.771Z,90.73
2019-01-22T09:29:48.741Z,90.63
2019-01-22T09:30:48.720Z,90.73
2019-01-22T09:31:48.685Z,90.73
2019-01-22T09:32:48.662Z,90.16
2019-01-22T09:33:49.601Z,90.44
2019-01-22T09:34:48.603Z,89.87
2019-01-22T09:35:48.564Z,90.54
2019-01-22T09:36:48.541Z,90.44
2019-01-22T09:37:48.512Z,90.06
2019-01-22T09:38:48.484Z,90.06
2019-01-22T09:39:49.306Z,90.16
2019-01-22T09:40:48.467Z,90.06
2019-01-22T09:41:48.388Z,90.06
2019-01-22T09:42:48.359Z,90.16
2019-01-22T09:43:48.328Z,89.78
2019-01-22T09:44:48.299Z,89.31
2019-01-22T09:45:48.270Z,89.22
2019-01-22T09:46:48.240Z,89.22
2019-01-22T09:47:48.219Z,89.31
2019-01-22T09:48:48.182Z,89.40
2019-01-22T09:49:48.155Z,88.84
2019-01-22T09:50:48.131Z,89.03
2019-01-22T09:51:48.104Z,88.84
2019-01-22T09:52:48.066Z,88.84
2019-01-22T09:53:48.038Z,88.93
2019-01-22T09:54:48.007Z,88.93
2019-01-22T09:55:47.986Z,88.27
2019-01-22T09:56:47.948Z,89.03
2019-01-22T09:57:47.929Z,88.93
2019-01-22T09:58:47.894Z,88.27
2019-01-22T09:59:48.520Z,88.65
2019-01-22T10:00:47.835Z,89.03
2019-01-22T10:01:47.807Z,88.55
2019-01-22T10:02:47.775Z,88.22
2019-01-22T10:03:47.757Z,88.27
2019-01-22T10:04:47.725Z,88.17
2019-01-22T10:05:47.688Z,88.03
2019-01-22T10:06:47.685Z,88.22
2019-01-22T10:07:47.641Z,87.93
2019-01-22T10:08:47.608Z,88.12
2019-01-22T10:09:47.571Z,87.55
2019-01-22T10:10:47.545Z,87.27
2019-01-22T10:11:47.514Z,87.27
2019-01-22T10:12:47.490Z,87.18
2019-01-22T10:13:48.300Z,86.71
2019-01-22T10:14:47.428Z,86.04
2019-01-22T10:15:47.399Z,86.04
2019-01-22T10:16:47.369Z,85.24
2019-01-22T10:17:47.341Z,84.58
2019-01-22T10:18:47.355Z,83.63
2019-01-22T10:19:47.283Z,82.59
2019-01-22T10:20:47.255Z,82.12
2019-01-22T10:21:47.226Z,82.34
2019-01-22T10:22:47.207Z,82.12
2019-01-22T10:23:47.171Z,82.21
2019-01-22T10:24:47.142Z,82.78
2019-01-22T10:25:47.129Z,82.50
2019-01-22T10:26:47.087Z,82.40
2019-01-22T10:27:47.057Z,82.25
2019-01-22T10:28:47.030Z,82.12
2019-01-22T10:29:47.005Z,82.06
2019-01-22T10:30:46.983Z,81.68
2019-01-22T10:31:50.391Z,80.83
2019-01-22T10:32:46.931Z,80.64
2019-01-22T10:33:46.891Z,80.93
2019-01-22T10:34:46.861Z,80.36
2019-01-22T10:35:46.844Z,80.26
2019-01-22T10:36:46.817Z,80.36
2019-01-22T10:37:46.789Z,80.26
2019-01-22T10:38:46.752Z,80.45
2019-01-22T10:39:46.735Z,80.36
2019-01-22T10:40:46.703Z,79.60
2019-01-22T10:41:46.709Z,79.60
2019-01-22T10:42:46.641Z,80.26
2019-01-22T10:43:46.629Z,81.07
2019-01-22T10:44:46.586Z,81.74
2019-01-22T10:45:46.558Z,82.31
2019-01-22T10:46:46.536Z,82.12
2019-01-22T10:47:46.511Z,82.40
2019-01-22T10:48:46.477Z,82.02
2019-01-22T10:49:46.447Z,82.21
2019-01-22T10:50:46.420Z,81.59
2019-01-22T10:51:46.393Z,81.30
2019-01-22T10:52:46.371Z,80.93
2019-01-22T10:53:46.342Z,80.36
2019-01-22T10:54:46.309Z,80.17
2019-01-22T10:55:46.282Z,80.45
2019-01-22T10:56:46.277Z,79.60
2019-01-22T10:57:46.228Z,79.32
2019-01-22T10:58:46.346Z,78.94
2019-01-22T10:59:46.179Z,78.46
2019-01-22T11:00:46.147Z,77.80
2019-01-22T11:01:46.117Z,78.18
2019-01-22T11:02:46.088Z,78.46
2019-01-22T11:03:46.062Z,78.94
2019-01-22T11:04:46.033Z,78.85
2019-01-22T11:05:46.009Z,78.46
2019-01-22T11:06:45.984Z,78.22
2019-01-22T11:07:45.965Z,78.13
2019-01-22T11:08:45.924Z,77.56
2019-01-22T11:09:45.896Z,77.18
2019-01-22T11:10:45.870Z,76.89
2019-01-22T11:11:45.842Z,76.89
2019-01-22T11:12:45.823Z,77.08
2019-01-22T11:13:45.793Z,76.61
2019-01-22T11:14:45.759Z,76.32
2019-01-22T11:15:45.748Z,76.32
2019-01-22T11:16:45.706Z,76.89
2019-01-22T11:17:45.688Z,76.51
2019-01-22T11:18:45.653Z,76.80
2019-01-22T11:19:45.627Z,76.19
2019-01-22T11:20:45.597Z,76.00
2019-01-22T11:21:45.568Z,76.42
2019-01-22T11:22:45.543Z,76.32
2019-01-22T11:23:45.520Z,76.51
2019-01-22T11:24:45.493Z,76.14
2019-01-22T11:25:45.467Z,75.57
2019-01-22T11:26:45.436Z,75.57
2019-01-22T11:27:45.409Z,75.38
2019-01-22T11:28:45.379Z,74.90
2019-01-22T11:29:45.351Z,74.15
2019-01-22T11:30:45.332Z,73.96
2019-01-22T11:31:45.299Z,73.96
2019-01-22T11:32:45.276Z,74.05
2019-01-22T11:33:45.241Z,73.39
2019-01-22T11:34:45.215Z,73.20
2019-01-22T11:35:45.187Z,72.73
2019-01-22T11:36:45.159Z,72.34
2019-01-22T11:37:45.132Z,72.25
2019-01-22T11:38:45.107Z,72.25
2019-01-22T11:39:45.088Z,71.97
2019-01-22T11:40:45.059Z,71.91
2019-01-22T11:41:45.027Z,71.34
2019-01-22T11:42:45.011Z,70.20
2019-01-22T11:43:44.971Z,69.92
2019-01-22T11:44:44.952Z,68.98
2019-01-22T11:45:44.916Z,69.07
2019-01-22T11:46:44.901Z,68.73
2019-01-22T11:47:44.862Z,68.40
2019-01-22T11:48:44.913Z,68.02
2019-01-22T11:49:44.817Z,68.54
2019-01-22T11:50:44.788Z,68.25
2019-01-22T11:51:44.754Z,67.68
2019-01-22T11:52:44.773Z,67.18
2019-01-22T11:53:44.700Z,67.36
2019-01-22T11:54:44.674Z,66.99
2019-01-22T11:55:50.498Z,67.55
2019-01-22T11:56:44.626Z,67.55
2019-01-22T11:57:44.602Z,67.65
2019-01-22T11:58:44.571Z,66.89
2019-01-22T11:59:45.948Z,67.46
2019-01-22T12:00:44.513Z,67.55
2019-01-22T12:01:44.486Z,67.40
2019-01-22T12:02:44.458Z,67.30
2019-01-22T12:03:44.438Z,67.58
2019-01-22T12:04:44.419Z,66.89
2019-01-22T12:05:44.378Z,67.08
2019-01-22T12:06:44.351Z,66.80
2019-01-22T12:07:44.345Z,67.27
2019-01-22T12:08:44.296Z,67.49
2019-01-22T12:09:44.291Z,67.11
2019-01-22T12:10:44.241Z,66.07
2019-01-22T12:11:44.219Z,65.97
2019-01-22T12:12:44.193Z,65.88
2019-01-22T12:13:44.160Z,64.74
2019-01-22T12:14:44.139Z,64.97
2019-01-22T12:15:44.106Z,63.92
2019-01-22T12:16:44.081Z,63.45
2019-01-22T12:17:44.054Z,63.26
2019-01-22T12:18:44.029Z,63.07
2019-01-22T12:19:44.007Z,63.13
2019-01-22T12:20:43.970Z,62.85
2019-01-22T12:21:43.946Z,63.13
2019-01-22T12:22:43.920Z,63.51
2019-01-22T12:23:43.892Z,63.60
2019-01-22T12:24:43.868Z,63.35
2019-01-22T12:25:43.855Z,62.88
2019-01-22T12:26:43.827Z,62.18
2019-01-22T12:27:43.788Z,62.47
2019-01-22T12:28:43.758Z,62.47
2019-01-22T12:29:43.732Z,62.66
2019-01-22T12:30:43.717Z,62.75
2019-01-22T12:31:43.680Z,62.47
2019-01-22T12:32:44.457Z,62.08
2019-01-22T12:33:43.629Z,61.90
2019-01-22T12:34:43.599Z,62.47
2019-01-22T12:35:43.571Z,62.08
2019-01-22T12:36:43.550Z,61.65
2019-01-22T12:37:43.523Z,61.27
2019-01-22T12:38:43.498Z,60.79
2019-01-22T12:39:43.464Z,60.98
2019-01-22T12:40:43.437Z,60.70
2019-01-22T12:41:43.418Z,60.79
2019-01-22T12:42:43.402Z,60.41
2019-01-22T12:43:43.368Z,60.41
2019-01-22T12:44:43.331Z,59.37
2019-01-22T12:45:43.309Z,59.84
2019-01-22T12:46:43.280Z,59.97
2019-01-22T12:47:43.259Z,59.56
2019-01-22T12:48:43.241Z,59.75
2019-01-22T12:49:43.199Z,60.89
2019-01-22T12:50:43.171Z,60.10
2019-01-22T12:51:43.160Z,60.76